VABP/BHO METAR and TAF weather

Enter ICAO airport designator
Station Type Date Time Source
VABP METAR 2024/06/16 06:00 UTC NOAA

VABP 160600Z 23004KT 6000 FEW020 35/19 Q1007 NOSIG


Station Type Date Time Source
VABP Decoded METAR 2024/06/16 06:00 UTC NOAA

Bhopal / Bairagarh, India (VABP) 23-17N 077-21E 523M
Jun 16, 2024 - 02:00 AM EDT / 2024.06.16 0600 UTC
Wind: from the SW (230 degrees) at 5 MPH (4 KT):0
Visibility: 3 mile(s):0
Sky conditions: mostly clear
Temperature: 95 F (35 C)
Heat index: 98.4 F (36.9 C):1
Dew Point: 66 F (19 C)
Relative Humidity: 39%
Pressure (altimeter): 29.74 in. Hg (1007 hPa)
ob: VABP 160600Z 23004KT 6000 FEW020 35/19 Q1007 NOSIG
cycle: 6

Station Type Date Time Source
VABP TAF 2023/11/21 12:00 UTC NOAA